sensor_id;sensor_type;location;lat;lon;timestamp;temperature;humidity
72936;DHT22;61085;48.804;9.228;2023-04-03T09:16:52;6.20;92.20
72936;DHT22;61085;48.804;9.228;2023-04-03T09:44:53;6.50;88.50
72936;DHT22;61085;48.804;9.228;2023-04-03T09:50:19;6.40;90.80
72936;DHT22;61085;48.804;9.228;2023-04-03T09:52:48;6.50;91.00
72936;DHT22;61085;48.804;9.228;2023-04-03T09:55:22;6.50;91.30
72936;DHT22;61085;48.804;9.228;2023-04-03T09:57:53;6.30;91.30
72936;DHT22;61085;48.804;9.228;2023-04-03T10:00:22;6.50;91.70
72936;DHT22;61085;48.804;9.228;2023-04-03T10:02:52;6.40;91.00
72936;DHT22;61085;48.804;9.228;2023-04-03T10:10:41;6.70;90.40
72936;DHT22;61085;48.804;9.228;2023-04-03T10:13:15;6.80;88.90
72936;DHT22;61085;48.804;9.228;2023-04-03T10:18:33;6.60;87.30
72936;DHT22;61085;48.804;9.228;2023-04-03T10:21:57;6.50;87.00
72936;DHT22;61085;48.804;9.228;2023-04-03T10:29:02;6.40;88.70
72936;DHT22;61085;48.804;9.228;2023-04-03T10:31:52;6.40;88.70
72936;DHT22;61085;48.804;9.228;2023-04-03T10:34:32;6.40;89.00
72936;DHT22;61085;48.804;9.228;2023-04-03T10:39:43;6.50;89.10
72936;DHT22;61085;48.804;9.228;2023-04-03T10:42:49;6.50;88.90
72936;DHT22;61085;48.804;9.228;2023-04-03T10:50:58;6.60;83.40
72936;DHT22;61085;48.804;9.228;2023-04-03T11:01:40;6.60;79.50
72936;DHT22;61085;48.804;9.228;2023-04-03T11:04:09;6.60;76.80
72936;DHT22;61085;48.804;9.228;2023-04-03T11:06:52;6.70;77.30
72936;DHT22;61085;48.804;9.228;2023-04-03T11:09:26;6.60;76.70
72936;DHT22;61085;48.804;9.228;2023-04-03T11:12:21;6.70;75.50
72936;DHT22;61085;48.804;9.228;2023-04-03T11:14:45;6.80;74.00
72936;DHT22;61085;48.804;9.228;2023-04-03T11:22:32;6.80;73.60
72936;DHT22;61085;48.804;9.228;2023-04-03T11:25:21;6.80;74.20
72936;DHT22;61085;48.804;9.228;2023-04-03T11:28:00;6.70;75.90
72936;DHT22;61085;48.804;9.228;2023-04-03T11:36:26;6.80;76.30
72936;DHT22;61085;48.804;9.228;2023-04-03T11:38:56;6.80;76.50
72936;DHT22;61085;48.804;9.228;2023-04-03T11:52:01;6.80;73.80
72936;DHT22;61085;48.804;9.228;2023-04-03T11:54:48;6.90;71.40
72936;DHT22;61085;48.804;9.228;2023-04-03T11:57:45;6.90;71.70
72936;DHT22;61085;48.804;9.228;2023-04-03T12:04:02;6.90;72.90
72936;DHT22;61085;48.804;9.228;2023-04-03T12:06:51;7.00;75.20
72936;DHT22;61085;48.804;9.228;2023-04-03T12:14:18;6.80;72.70
72936;DHT22;61085;48.804;9.228;2023-04-03T12:16:46;6.90;74.00
72936;DHT22;61085;48.804;9.228;2023-04-03T12:26:46;7.00;72.70
72936;DHT22;61085;48.804;9.228;2023-04-03T12:48:25;7.20;67.00
72936;DHT22;61085;48.804;9.228;2023-04-03T12:50:52;7.20;67.30
72936;DHT22;61085;48.804;9.228;2023-04-03T12:53:28;7.10;65.60
72936;DHT22;61085;48.804;9.228;2023-04-03T12:58:48;7.20;66.50
72936;DHT22;61085;48.804;9.228;2023-04-03T13:01:17;7.20;66.40
72936;DHT22;61085;48.804;9.228;2023-04-03T13:03:49;7.20;64.00
72936;DHT22;61085;48.804;9.228;2023-04-03T13:06:42;7.30;64.30
72936;DHT22;61085;48.804;9.228;2023-04-03T13:09:28;7.30;62.60
72936;DHT22;61085;48.804;9.228;2023-04-03T13:11:59;7.30;61.90
72936;DHT22;61085;48.804;9.228;2023-04-03T13:14:28;7.20;61.10
72936;DHT22;61085;48.804;9.228;2023-04-03T13:19:24;7.30;62.90
72936;DHT22;61085;48.804;9.228;2023-04-03T13:22:05;7.30;62.60
72936;DHT22;61085;48.804;9.228;2023-04-03T13:24:35;7.30;63.30
72936;DHT22;61085;48.804;9.228;2023-04-03T13:27:02;7.30;62.10
72936;DHT22;61085;48.804;9.228;2023-04-03T13:29:32;7.40;61.00
72936;DHT22;61085;48.804;9.228;2023-04-03T13:31:59;7.30;60.10
72936;DHT22;61085;48.804;9.228;2023-04-03T13:34:28;7.40;61.00
72936;DHT22;61085;48.804;9.228;2023-04-03T13:36:55;7.30;59.90
72936;DHT22;61085;48.804;9.228;2023-04-03T13:39:29;7.40;59.60
72936;DHT22;61085;48.804;9.228;2023-04-03T13:44:33;7.60;56.40
72936;DHT22;61085;48.804;9.228;2023-04-03T13:47:13;7.50;56.70
72936;DHT22;61085;48.804;9.228;2023-04-03T13:49:43;7.60;56.70
72936;DHT22;61085;48.804;9.228;2023-04-03T13:53:01;7.70;57.00
72936;DHT22;61085;48.804;9.228;2023-04-03T13:58:23;7.50;58.60
72936;DHT22;61085;48.804;9.228;2023-04-03T14:03:37;7.60;58.40
72936;DHT22;61085;48.804;9.228;2023-04-03T14:06:08;7.70;58.20
72936;DHT22;61085;48.804;9.228;2023-04-03T14:11:01;7.60;57.30
72936;DHT22;61085;48.804;9.228;2023-04-03T14:13:30;7.70;59.30
72936;DHT22;61085;48.804;9.228;2023-04-03T14:15:56;7.70;56.90
72936;DHT22;61085;48.804;9.228;2023-04-03T14:18:22;7.60;58.00
72936;DHT22;61085;48.804;9.228;2023-04-03T14:20:49;7.70;58.30
72936;DHT22;61085;48.804;9.228;2023-04-03T14:23:15;7.50;57.50
72936;DHT22;61085;48.804;9.228;2023-04-03T14:25:41;7.50;57.50
72936;DHT22;61085;48.804;9.228;2023-04-03T14:28:17;7.50;57.40
72936;DHT22;61085;48.804;9.228;2023-04-03T14:30:44;7.50;57.10
72936;DHT22;61085;48.804;9.228;2023-04-03T14:33:16;7.70;56.90
72936;DHT22;61085;48.804;9.228;2023-04-03T14:35:42;7.80;55.30
72936;DHT22;61085;48.804;9.228;2023-04-03T14:38:21;7.90;53.90
72936;DHT22;61085;48.804;9.228;2023-04-03T14:40:48;7.90;53.60
72936;DHT22;61085;48.804;9.228;2023-04-03T14:43:14;7.80;53.80
72936;DHT22;61085;48.804;9.228;2023-04-03T14:45:40;7.70;54.50
72936;DHT22;61085;48.804;9.228;2023-04-03T14:48:12;7.70;54.30
72936;DHT22;61085;48.804;9.228;2023-04-03T14:50:41;7.70;55.00
72936;DHT22;61085;48.804;9.228;2023-04-03T14:53:07;7.70;54.90
72936;DHT22;61085;48.804;9.228;2023-04-03T14:55:35;7.80;55.00
72936;DHT22;61085;48.804;9.228;2023-04-03T14:58:01;7.70;54.30
72936;DHT22;61085;48.804;9.228;2023-04-03T15:00:27;7.80;54.80
72936;DHT22;61085;48.804;9.228;2023-04-03T15:02:55;7.90;54.50
72936;DHT22;61085;48.804;9.228;2023-04-03T15:05:21;7.90;53.80
72936;DHT22;61085;48.804;9.228;2023-04-03T15:07:55;7.80;53.80
72936;DHT22;61085;48.804;9.228;2023-04-03T15:10:27;7.60;52.90
72936;DHT22;61085;48.804;9.228;2023-04-03T15:12:53;7.60;53.60
72936;DHT22;61085;48.804;9.228;2023-04-03T15:15:20;7.80;53.90
72936;DHT22;61085;48.804;9.228;2023-04-03T15:17:52;8.20;53.40
72936;DHT22;61085;48.804;9.228;2023-04-03T15:20:24;8.00;50.00
72936;DHT22;61085;48.804;9.228;2023-04-03T15:22:51;7.80;51.20
72936;DHT22;61085;48.804;9.228;2023-04-03T15:25:16;7.80;51.10
72936;DHT22;61085;48.804;9.228;2023-04-03T15:27:43;7.80;51.70
72936;DHT22;61085;48.804;9.228;2023-04-03T15:30:14;7.70;51.70
72936;DHT22;61085;48.804;9.228;2023-04-03T15:32:40;7.50;53.00
72936;DHT22;61085;48.804;9.228;2023-04-03T15:35:06;7.50;52.80
72936;DHT22;61085;48.804;9.228;2023-04-03T15:37:32;7.80;52.70
72936;DHT22;61085;48.804;9.228;2023-04-03T15:39:58;7.50;52.60
72936;DHT22;61085;48.804;9.228;2023-04-03T15:42:23;7.40;53.30
72936;DHT22;61085;48.804;9.228;2023-04-03T15:44:49;7.40;52.20
72936;DHT22;61085;48.804;9.228;2023-04-03T15:47:15;7.40;52.00
72936;DHT22;61085;48.804;9.228;2023-04-03T15:49:40;7.50;51.30
72936;DHT22;61085;48.804;9.228;2023-04-03T15:56:59;7.60;50.90
72936;DHT22;61085;48.804;9.228;2023-04-03T15:59:24;7.50;51.20
72936;DHT22;61085;48.804;9.228;2023-04-03T16:01:51;7.60;51.10
72936;DHT22;61085;48.804;9.228;2023-04-03T16:04:17;7.70;50.80
72936;DHT22;61085;48.804;9.228;2023-04-03T16:11:36;7.70;48.40
72936;DHT22;61085;48.804;9.228;2023-04-03T16:14:04;7.70;48.40
72936;DHT22;61085;48.804;9.228;2023-04-03T22:28:29;3.40;69.20
72936;DHT22;61085;48.804;9.228;2023-04-03T22:30:55;3.30;69.90
72936;DHT22;61085;48.804;9.228;2023-04-03T22:33:21;3.30;70.10
72936;DHT22;61085;48.804;9.228;2023-04-03T22:35:48;3.30;70.70
